Time;durP1;ratioP1;P1;durP2;ratioP2;P2;SDS_P1;SDS_P2;PMS_P1;PMS_P2;Temp;Humidity;BMP_temperature;BMP_pressure;BME280_temperature;BME280_humidity;BME280_pressure;Samples;Min_cycle;Max_cycle;Signal;HPM_P1;HPM_P2
2022/03/24 00:01:40;;;;;;;30.80;21.45;;;;;;;;;;5054355;28;20132;-63
2022/03/24 00:04:06;;;;;;;38.92;21.65;;;;;;;;;;5038545;28;20037;-63
2022/03/24 00:06:32;;;;;;;35.55;22.17;;;;;;;;;;5071142;28;20036;-63
2022/03/24 00:08:58;;;;;;;42.28;23.15;;;;;;;;;;5070384;28;20094;-63
2022/03/24 00:11:24;;;;;;;34.67;21.08;;;;;;;;;;5056361;28;20058;-63
2022/03/24 00:13:50;;;;;;;37.78;22.13;;;;;;;;;;5072030;28;20143;-63
2022/03/24 00:16:17;;;;;;;38.75;23.02;;;;;;;;;;5053889;28;20047;-63
2022/03/24 00:18:44;;;;;;;43.80;23.13;;;;;;;;;;5073214;28;20511;-63
2022/03/24 00:21:10;;;;;;;33.90;20.70;;;;;;;;;;5075378;28;20070;-63
2022/03/24 00:23:36;;;;;;;38.33;20.77;;;;;;;;;;5055311;28;20120;-63
2022/03/24 00:26:02;;;;;;;37.42;21.70;;;;;;;;;;5052568;28;20121;-63
2022/03/24 00:28:29;;;;;;;36.20;22.48;;;;;;;;;;5072052;28;20055;-63
2022/03/24 00:30:55;;;;;;;35.53;23.08;;;;;;;;;;5072434;28;20090;-63
2022/03/24 00:33:22;;;;;;;35.10;22.08;;;;;;;;;;5073146;28;20043;-63
2022/03/24 00:35:48;;;;;;;38.03;23.67;;;;;;;;;;5074477;28;20036;-63
2022/03/24 00:38:14;;;;;;;36.63;22.52;;;;;;;;;;5072744;28;20048;-63
2022/03/24 00:40:41;;;;;;;33.90;21.15;;;;;;;;;;5071808;28;20036;-63
2022/03/24 00:43:08;;;;;;;39.67;23.45;;;;;;;;;;5070688;28;20059;-63
2022/03/24 00:45:34;;;;;;;36.60;22.92;;;;;;;;;;5063123;28;20048;-63
2022/03/24 00:48:00;;;;;;;37.05;23.63;;;;;;;;;;5053116;28;20044;-63
2022/03/24 00:50:26;;;;;;;42.95;23.35;;;;;;;;;;5074414;28;20143;-63
2022/03/24 00:52:52;;;;;;;45.90;26.10;;;;;;;;;;5072826;28;20044;-63
2022/03/24 00:55:19;;;;;;;40.63;25.05;;;;;;;;;;5072549;28;20428;-63
2022/03/24 00:57:49;;;;;;;42.17;25.45;;;;;;;;;;5072856;28;20044;-63
2022/03/24 01:00:16;;;;;;;45.00;25.67;;;;;;;;;;5073225;28;20437;-63
2022/03/24 01:02:43;;;;;;;49.20;27.30;;;;;;;;;;5071746;28;20044;-63
2022/03/24 01:05:10;;;;;;;45.22;27.25;;;;;;;;;;5073262;28;20098;-63
2022/03/24 01:07:36;;;;;;;50.05;28.60;;;;;;;;;;5074299;28;20068;-63
2022/03/24 01:10:03;;;;;;;44.08;27.08;;;;;;;;;;5073689;28;20037;-63
2022/03/24 01:12:29;;;;;;;46.08;28.38;;;;;;;;;;5074155;28;20101;-63
2022/03/24 01:14:59;;;;;;;48.15;29.13;;;;;;;;;;5073727;28;20035;-63
2022/03/24 01:17:26;;;;;;;44.30;27.80;;;;;;;;;;5074318;28;20125;-63
2022/03/24 01:19:56;;;;;;;46.83;27.88;;;;;;;;;;5073180;28;20049;-63
2022/03/24 01:22:22;;;;;;;47.17;28.15;;;;;;;;;;5070707;28;20072;-63
2022/03/24 01:24:48;;;;;;;47.70;27.45;;;;;;;;;;5068235;28;20045;-63
2022/03/24 01:27:15;;;;;;;48.35;28.30;;;;;;;;;;5056547;28;20045;-63
2022/03/24 01:29:41;;;;;;;43.38;27.45;;;;;;;;;;5054322;28;20492;-63
2022/03/24 01:32:07;;;;;;;42.85;26.70;;;;;;;;;;5072061;28;20572;-63
2022/03/24 01:34:34;;;;;;;43.85;27.15;;;;;;;;;;5070742;28;20033;-64
2022/03/24 01:37:00;;;;;;;42.80;26.50;;;;;;;;;;5071140;28;20040;-69
2022/03/24 01:39:27;;;;;;;45.30;27.67;;;;;;;;;;5070046;28;20086;-63
2022/03/24 01:41:53;;;;;;;46.28;28.05;;;;;;;;;;5070871;28;20040;-63
2022/03/24 01:44:21;;;;;;;44.13;25.33;;;;;;;;;;5070337;28;20040;-63
2022/03/24 01:46:56;;;;;;;44.95;26.63;;;;;;;;;;5054412;28;20098;-62
2022/03/24 01:49:24;;;;;;;43.85;25.90;;;;;;;;;;5072754;28;20041;-63
2022/03/24 01:51:50;;;;;;;41.70;25.50;;;;;;;;;;5075878;28;20524;-63
2022/03/24 01:54:16;;;;;;;44.20;26.25;;;;;;;;;;5076092;28;20079;-63
2022/03/24 01:56:43;;;;;;;48.30;26.80;;;;;;;;;;5074093;28;20869;-63
2022/03/24 01:59:09;;;;;;;41.17;26.17;;;;;;;;;;5073652;28;20040;-63
2022/03/24 02:01:36;;;;;;;44.95;25.75;;;;;;;;;;5075640;28;20044;-62
2022/03/24 02:04:05;;;;;;;43.13;26.77;;;;;;;;;;5073055;28;20434;-63
2022/03/24 02:06:35;;;;;;;46.17;27.42;;;;;;;;;;5056028;28;20507;-62
2022/03/24 02:09:01;;;;;;;51.28;26.48;;;;;;;;;;5074673;28;20047;-63
2022/03/24 02:11:28;;;;;;;46.13;26.52;;;;;;;;;;5055855;28;20139;-63
2022/03/24 02:13:57;;;;;;;42.92;24.75;;;;;;;;;;5074304;28;20382;-63
2022/03/24 02:16:27;;;;;;;44.05;26.92;;;;;;;;;;5073479;28;20040;-63
2022/03/24 02:19:00;;;;;;;44.70;26.80;;;;;;;;;;5074070;28;20494;-63
2022/03/24 02:21:28;;;;;;;42.05;26.15;;;;;;;;;;5073964;28;20182;-62
2022/03/24 02:23:54;;;;;;;43.28;25.80;;;;;;;;;;5074578;28;20051;-63
2022/03/24 02:26:21;;;;;;;43.17;25.60;;;;;;;;;;5074416;28;20044;-63
2022/03/24 02:28:47;;;;;;;45.47;27.80;;;;;;;;;;5072904;28;20048;-63
2022/03/24 02:31:13;;;;;;;48.88;27.00;;;;;;;;;;5073560;28;20086;-63
2022/03/24 02:33:39;;;;;;;48.40;27.95;;;;;;;;;;5073807;28;20040;-63
2022/03/24 02:36:07;;;;;;;50.78;29.60;;;;;;;;;;5073426;28;20558;-63
2022/03/24 02:38:33;;;;;;;49.97;29.38;;;;;;;;;;5055493;28;20047;-63
2022/03/24 02:40:59;;;;;;;41.72;25.42;;;;;;;;;;5074000;28;20044;-63
2022/03/24 02:43:25;;;;;;;43.13;25.67;;;;;;;;;;5073821;28;20392;-62
2022/03/24 02:45:53;;;;;;;43.88;25.38;;;;;;;;;;5073888;28;20036;-63
2022/03/24 02:48:22;;;;;;;51.17;25.88;;;;;;;;;;5073567;28;20032;-62
2022/03/24 02:50:49;;;;;;;43.45;25.90;;;;;;;;;;5073297;28;20032;-63
2022/03/24 02:53:15;;;;;;;44.95;26.35;;;;;;;;;;5072649;28;20060;-62
2022/03/24 02:55:41;;;;;;;48.22;28.17;;;;;;;;;;5073150;28;20083;-63
2022/03/24 02:58:08;;;;;;;47.00;27.23;;;;;;;;;;5073099;28;20136;-63
2022/03/24 03:00:34;;;;;;;44.03;27.13;;;;;;;;;;5072125;28;20040;-63
2022/03/24 03:03:00;;;;;;;45.10;26.90;;;;;;;;;;5054999;28;20055;-63
2022/03/24 03:05:27;;;;;;;45.15;26.27;;;;;;;;;;5073828;28;20028;-63
2022/03/24 03:07:53;;;;;;;43.28;26.30;;;;;;;;;;5073276;28;20036;-63
2022/03/24 03:10:19;;;;;;;47.60;28.02;;;;;;;;;;5073458;28;20040;-63
2022/03/24 03:12:46;;;;;;;47.47;29.02;;;;;;;;;;5055233;28;20048;-63
2022/03/24 03:15:13;;;;;;;50.83;30.40;;;;;;;;;;5055190;28;20067;-63
2022/03/24 03:17:39;;;;;;;48.72;28.80;;;;;;;;;;5072776;28;20044;-63
2022/03/24 03:20:08;;;;;;;45.63;28.15;;;;;;;;;;5073699;28;20040;-63
2022/03/24 03:22:34;;;;;;;49.78;27.30;;;;;;;;;;5071870;28;20048;-63
2022/03/24 03:25:00;;;;;;;43.03;28.10;;;;;;;;;;5072976;28;20038;-63
2022/03/24 03:27:27;;;;;;;43.08;26.35;;;;;;;;;;5072803;28;20055;-62
2022/03/24 03:29:53;;;;;;;47.13;27.17;;;;;;;;;;5072887;28;20119;-62
2022/03/24 03:32:21;;;;;;;41.42;26.92;;;;;;;;;;5073008;28;20045;-63
2022/03/24 03:34:48;;;;;;;44.83;26.92;;;;;;;;;;5072200;28;20037;-62
2022/03/24 03:37:14;;;;;;;44.63;27.75;;;;;;;;;;5073749;28;20080;-63
2022/03/24 03:39:41;;;;;;;48.88;29.33;;;;;;;;;;5071868;28;20032;-62
2022/03/24 03:42:08;;;;;;;42.67;26.55;;;;;;;;;;5072849;28;20037;-63
2022/03/24 03:44:34;;;;;;;47.38;28.02;;;;;;;;;;5071308;28;20207;-63
2022/03/24 03:47:01;;;;;;;44.75;27.42;;;;;;;;;;5053801;28;20045;-64
2022/03/24 03:49:27;;;;;;;43.05;27.92;;;;;;;;;;5072047;28;20725;-63
2022/03/24 03:51:54;;;;;;;47.05;28.38;;;;;;;;;;5072130;28;20485;-63
2022/03/24 03:54:21;;;;;;;42.38;27.67;;;;;;;;;;5072477;28;20044;-63
2022/03/24 03:56:47;;;;;;;51.30;28.48;;;;;;;;;;5054156;28;20052;-63
2022/03/24 03:59:13;;;;;;;50.35;30.10;;;;;;;;;;5072185;28;20443;-64
2022/03/24 04:01:40;;;;;;;48.03;29.75;;;;;;;;;;5072351;28;20480;-63
2022/03/24 04:04:12;;;;;;;47.58;30.73;;;;;;;;;;5069445;28;20123;-63
2022/03/24 04:06:38;;;;;;;48.85;29.90;;;;;;;;;;5072791;28;20250;-63
2022/03/24 04:09:04;;;;;;;50.95;29.40;;;;;;;;;;5053898;28;20060;-63
2022/03/24 04:11:30;;;;;;;49.08;29.33;;;;;;;;;;5071622;28;20105;-63
2022/03/24 04:13:56;;;;;;;49.50;30.95;;;;;;;;;;5053530;28;20047;-63
2022/03/24 04:16:22;;;;;;;50.40;29.92;;;;;;;;;;5070992;28;20386;-63
2022/03/24 04:18:49;;;;;;;56.20;31.02;;;;;;;;;;5055674;28;20079;-62
2022/03/24 04:21:16;;;;;;;48.13;32.03;;;;;;;;;;5072918;28;20400;-63
2022/03/24 04:23:42;;;;;;;49.60;31.08;;;;;;;;;;5052059;28;20181;-62
2022/03/24 04:26:10;;;;;;;51.80;32.17;;;;;;;;;;5071858;28;20044;-62
2022/03/24 04:28:37;;;;;;;49.97;30.02;;;;;;;;;;5069413;28;20052;-62
2022/03/24 04:31:03;;;;;;;52.33;31.58;;;;;;;;;;5071281;28;20059;-63
2022/03/24 04:33:30;;;;;;;51.53;32.13;;;;;;;;;;5070282;28;20040;-62
2022/03/24 04:35:58;;;;;;;50.78;31.58;;;;;;;;;;5070200;28;20040;-62
2022/03/24 04:38:24;;;;;;;52.35;31.63;;;;;;;;;;5067009;28;20734;-63
2022/03/24 04:40:50;;;;;;;52.53;31.95;;;;;;;;;;5070146;28;20040;-62
2022/03/24 04:43:16;;;;;;;56.78;32.17;;;;;;;;;;5053739;28;20043;-62
2022/03/24 04:45:43;;;;;;;52.97;30.33;;;;;;;;;;5068250;28;20041;-63
2022/03/24 04:48:09;;;;;;;51.90;33.08;;;;;;;;;;5069355;28;20037;-63
2022/03/24 04:50:35;;;;;;;56.42;33.55;;;;;;;;;;5052879;28;20495;-62
2022/03/24 04:53:01;;;;;;;53.58;32.10;;;;;;;;;;5070636;28;20036;-63
2022/03/24 04:55:27;;;;;;;52.40;31.65;;;;;;;;;;5070755;28;20055;-63
2022/03/24 04:57:53;;;;;;;51.42;31.40;;;;;;;;;;5070513;28;20047;-63
2022/03/24 05:00:19;;;;;;;55.05;31.77;;;;;;;;;;5069444;28;20076;-62
2022/03/24 05:02:49;;;;;;;55.33;32.33;;;;;;;;;;5070868;28;20369;-63
2022/03/24 05:05:18;;;;;;;55.97;32.20;;;;;;;;;;5052564;28;20093;-63
2022/03/24 05:07:44;;;;;;;59.60;31.33;;;;;;;;;;5069216;28;20068;-63
2022/03/24 05:10:11;;;;;;;50.97;30.73;;;;;;;;;;5052184;28;20045;-63
2022/03/24 05:12:38;;;;;;;55.45;31.15;;;;;;;;;;5051858;28;20045;-62
2022/03/24 05:15:05;;;;;;;47.65;31.27;;;;;;;;;;5050716;28;20544;-63
2022/03/24 05:17:31;;;;;;;52.22;32.75;;;;;;;;;;5050368;28;20109;-63
2022/03/24 05:19:57;;;;;;;56.42;33.33;;;;;;;;;;5070814;28;20128;-63
2022/03/24 05:22:23;;;;;;;53.15;32.15;;;;;;;;;;5070472;28;20473;-63
2022/03/24 05:24:49;;;;;;;48.30;30.67;;;;;;;;;;5073651;28;20032;-62
2022/03/24 05:27:15;;;;;;;49.38;31.58;;;;;;;;;;5074760;28;20083;-63
2022/03/24 05:29:41;;;;;;;47.55;30.00;;;;;;;;;;5056069;28;20040;-63
2022/03/24 05:32:08;;;;;;;49.03;30.38;;;;;;;;;;5073970;28;20044;-63
2022/03/24 05:34:34;;;;;;;44.83;29.38;;;;;;;;;;5074408;28;20033;-63
2022/03/24 05:37:00;;;;;;;52.75;29.85;;;;;;;;;;5067427;28;20086;-62
2022/03/24 05:39:26;;;;;;;50.50;31.75;;;;;;;;;;5074074;28;20401;-63
2022/03/24 05:41:52;;;;;;;51.78;30.67;;;;;;;;;;5074802;28;20048;-62
2022/03/24 05:44:18;;;;;;;54.72;30.60;;;;;;;;;;5074376;28;20051;-64
2022/03/24 05:46:45;;;;;;;46.97;30.95;;;;;;;;;;5056434;28;20037;-64
2022/03/24 05:49:15;;;;;;;48.15;30.00;;;;;;;;;;5057098;28;20162;-65
2022/03/24 05:51:42;;;;;;;52.15;31.08;;;;;;;;;;5040215;28;20084;-65
2022/03/24 05:54:13;;;;;;;52.30;31.42;;;;;;;;;;5056007;28;20045;-65
2022/03/24 05:56:39;;;;;;;60.05;32.33;;;;;;;;;;5052181;28;20049;-65
2022/03/24 05:59:05;;;;;;;60.63;33.67;;;;;;;;;;5052121;28;20053;-65
2022/03/24 06:01:32;;;;;;;56.05;33.65;;;;;;;;;;5052664;28;20529;-65
2022/03/24 06:03:59;;;;;;;61.00;35.90;;;;;;;;;;5053187;28;20060;-65
2022/03/24 06:06:26;;;;;;;59.03;35.13;;;;;;;;;;5051468;28;20405;-65
2022/03/24 06:08:53;;;;;;;57.95;35.28;;;;;;;;;;5052095;28;20041;-65
2022/03/24 06:11:20;;;;;;;62.33;35.05;;;;;;;;;;5054093;28;20041;-65
2022/03/24 06:13:46;;;;;;;58.83;36.22;;;;;;;;;;5055818;28;20044;-65
2022/03/24 06:16:15;;;;;;;62.33;37.35;;;;;;;;;;5068639;28;20041;-65
2022/03/24 06:18:42;;;;;;;60.10;36.03;;;;;;;;;;5052908;28;20075;-65
2022/03/24 06:21:08;;;;;;;54.58;34.75;;;;;;;;;;5052408;28;20116;-65
2022/03/24 06:23:34;;;;;;;55.85;33.33;;;;;;;;;;5036315;28;20087;-65
2022/03/24 06:26:00;;;;;;;53.47;34.05;;;;;;;;;;5053924;28;20077;-65
2022/03/24 06:28:26;;;;;;;49.88;31.48;;;;;;;;;;5050800;28;20045;-65
2022/03/24 06:30:53;;;;;;;53.70;33.90;;;;;;;;;;5049567;28;20131;-65
2022/03/24 06:33:19;;;;;;;47.80;33.58;;;;;;;;;;5055240;28;20510;-65
2022/03/24 06:35:46;;;;;;;53.20;32.60;;;;;;;;;;5051611;28;20056;-64
2022/03/24 06:38:12;;;;;;;55.00;34.53;;;;;;;;;;5051851;28;20416;-65
2022/03/24 06:40:39;;;;;;;59.67;35.25;;;;;;;;;;5051862;28;20091;-65
2022/03/24 06:43:06;;;;;;;58.78;37.22;;;;;;;;;;5051075;28;20036;-65
2022/03/24 06:45:32;;;;;;;59.13;37.97;;;;;;;;;;5068046;28;20053;-64
2022/03/24 06:47:58;;;;;;;64.40;39.35;;;;;;;;;;5050997;28;20053;-65
2022/03/24 06:50:24;;;;;;;60.65;38.78;;;;;;;;;;5051260;28;20457;-65
2022/03/24 06:52:51;;;;;;;62.60;41.38;;;;;;;;;;5051232;28;20045;-65
2022/03/24 06:55:18;;;;;;;71.93;43.00;;;;;;;;;;5045861;28;20049;-65
2022/03/24 06:57:44;;;;;;;66.07;41.30;;;;;;;;;;5052830;28;20041;-65
2022/03/24 07:00:13;;;;;;;75.25;43.08;;;;;;;;;;5052706;28;20045;-65
2022/03/24 07:02:40;;;;;;;63.28;41.90;;;;;;;;;;5054262;28;20044;-65
2022/03/24 07:05:11;;;;;;;66.95;44.55;;;;;;;;;;5071355;28;20041;-65
2022/03/24 07:07:37;;;;;;;74.22;44.45;;;;;;;;;;5070464;28;20051;-65
2022/03/24 07:10:03;;;;;;;69.93;43.75;;;;;;;;;;5054601;28;20044;-65
2022/03/24 07:12:30;;;;;;;62.60;42.13;;;;;;;;;;5036566;28;20131;-65
2022/03/24 07:14:56;;;;;;;70.53;42.13;;;;;;;;;;5053506;28;20046;-65
2022/03/24 07:17:22;;;;;;;66.97;42.22;;;;;;;;;;5054582;28;20036;-65
2022/03/24 07:19:48;;;;;;;71.55;43.47;;;;;;;;;;5051866;28;20048;-65
2022/03/24 07:22:14;;;;;;;70.60;45.42;;;;;;;;;;5053180;28;20040;-65
2022/03/24 07:24:40;;;;;;;76.30;44.40;;;;;;;;;;5057461;28;20040;-65
2022/03/24 07:27:07;;;;;;;73.03;45.70;;;;;;;;;;5052535;28;20055;-65
2022/03/24 07:29:33;;;;;;;70.65;43.67;;;;;;;;;;5044626;28;20047;-65
2022/03/24 07:32:02;;;;;;;68.13;43.10;;;;;;;;;;5058039;28;20032;-64
2022/03/24 07:34:28;;;;;;;73.13;43.78;;;;;;;;;;5046771;28;20036;-65
2022/03/24 07:36:54;;;;;;;70.15;46.55;;;;;;;;;;5052715;28;20040;-65
2022/03/24 07:39:20;;;;;;;73.70;48.20;;;;;;;;;;5055115;28;20049;-65
2022/03/24 07:41:46;;;;;;;68.82;44.58;;;;;;;;;;5051919;28;20041;-65
2022/03/24 07:44:12;;;;;;;67.70;44.85;;;;;;;;;;5073261;28;20392;-65
2022/03/24 07:46:38;;;;;;;73.63;44.95;;;;;;;;;;5073862;28;20087;-65
2022/03/24 07:49:04;;;;;;;62.85;42.40;;;;;;;;;;5054765;28;20044;-65
2022/03/24 07:51:34;;;;;;;68.75;44.65;;;;;;;;;;5054438;28;20041;-65
2022/03/24 07:54:02;;;;;;;68.20;44.15;;;;;;;;;;5053167;28;20036;-65
2022/03/24 07:56:29;;;;;;;64.38;41.92;;;;;;;;;;5053230;28;20049;-65
2022/03/24 07:58:56;;;;;;;65.53;43.13;;;;;;;;;;5055990;28;20123;-65
2022/03/24 08:01:27;;;;;;;63.25;43.35;;;;;;;;;;5051275;28;20110;-65
2022/03/24 08:03:53;;;;;;;62.22;40.13;;;;;;;;;;5070202;28;20047;-65
2022/03/24 08:06:20;;;;;;;67.07;42.30;;;;;;;;;;5071159;28;20087;-65
2022/03/24 08:08:46;;;;;;;66.20;42.40;;;;;;;;;;5052676;28;20480;-66
2022/03/24 08:11:12;;;;;;;60.08;37.95;;;;;;;;;;5054030;28;20086;-67
2022/03/24 08:13:38;;;;;;;61.13;39.33;;;;;;;;;;5049696;28;20826;-65
2022/03/24 08:16:06;;;;;;;62.50;39.30;;;;;;;;;;5055837;28;20080;-65
2022/03/24 08:18:32;;;;;;;59.42;39.25;;;;;;;;;;5047535;28;20051;-65
2022/03/24 08:20:59;;;;;;;60.83;38.92;;;;;;;;;;5049300;28;20413;-65
2022/03/24 08:23:25;;;;;;;58.17;35.85;;;;;;;;;;5046665;28;20393;-65
2022/03/24 08:25:51;;;;;;;57.28;36.90;;;;;;;;;;5063206;28;20048;-65
2022/03/24 08:28:18;;;;;;;62.17;38.00;;;;;;;;;;5043199;28;20049;-65
2022/03/24 08:30:45;;;;;;;61.35;34.83;;;;;;;;;;5050880;28;20549;-65
2022/03/24 08:33:12;;;;;;;60.72;38.70;;;;;;;;;;5051132;28;20059;-65
2022/03/24 08:35:39;;;;;;;58.53;37.40;;;;;;;;;;5050754;28;20053;-65
2022/03/24 08:38:05;;;;;;;57.58;37.17;;;;;;;;;;5068746;28;20238;-65
2022/03/24 08:40:32;;;;;;;55.55;36.95;;;;;;;;;;5051518;28;20049;-65
2022/03/24 08:42:58;;;;;;;57.58;37.60;;;;;;;;;;5033241;28;20052;-65
2022/03/24 08:45:24;;;;;;;56.92;38.28;;;;;;;;;;5048472;28;20096;-65
2022/03/24 08:47:51;;;;;;;58.28;37.45;;;;;;;;;;5068214;28;20484;-65
2022/03/24 08:50:17;;;;;;;56.90;37.03;;;;;;;;;;5069718;28;20121;-65
2022/03/24 08:52:45;;;;;;;55.00;35.28;;;;;;;;;;5048124;28;20044;-65
2022/03/24 08:55:13;;;;;;;54.15;35.83;;;;;;;;;;5050210;28;20500;-65
2022/03/24 08:57:39;;;;;;;50.38;34.05;;;;;;;;;;5046954;28;20056;-65
2022/03/24 09:00:12;;;;;;;50.70;32.03;;;;;;;;;;5051398;28;20044;-65
2022/03/24 09:02:39;;;;;;;53.25;33.88;;;;;;;;;;5050846;28;20049;-65
2022/03/24 09:05:05;;;;;;;51.13;34.35;;;;;;;;;;5048612;28;20037;-65
2022/03/24 09:07:31;;;;;;;48.53;32.13;;;;;;;;;;5050770;28;20052;-65
2022/03/24 09:09:57;;;;;;;53.38;34.63;;;;;;;;;;5051300;28;20079;-65
2022/03/24 09:12:24;;;;;;;51.35;32.85;;;;;;;;;;5049492;28;20052;-65
2022/03/24 09:14:50;;;;;;;51.42;33.20;;;;;;;;;;5050565;28;20493;-65
2022/03/24 09:17:16;;;;;;;50.90;35.65;;;;;;;;;;5050484;28;20135;-65
2022/03/24 09:19:42;;;;;;;47.17;32.70;;;;;;;;;;5066715;28;20071;-65
2022/03/24 09:22:09;;;;;;;51.55;34.60;;;;;;;;;;5052494;28;20040;-65
2022/03/24 09:24:36;;;;;;;48.70;33.67;;;;;;;;;;5050225;28;20106;-65
2022/03/24 09:27:03;;;;;;;53.70;34.38;;;;;;;;;;5050876;28;20099;-65
2022/03/24 09:29:30;;;;;;;50.08;32.72;;;;;;;;;;5046245;28;20052;-65
2022/03/24 09:31:56;;;;;;;45.38;31.48;;;;;;;;;;5049000;28;20593;-65
2022/03/24 09:34:22;;;;;;;47.40;32.97;;;;;;;;;;5068580;28;20520;-65
2022/03/24 09:36:48;;;;;;;48.13;33.28;;;;;;;;;;5050276;28;20039;-65
2022/03/24 09:39:15;;;;;;;44.95;31.23;;;;;;;;;;5032025;28;20048;-65
2022/03/24 09:41:46;;;;;;;47.13;31.83;;;;;;;;;;5051092;28;20078;-65
2022/03/24 09:44:12;;;;;;;47.25;31.27;;;;;;;;;;5068297;28;20413;-65
2022/03/24 09:46:39;;;;;;;51.55;31.38;;;;;;;;;;5038156;28;20056;-65
2022/03/24 09:49:05;;;;;;;47.28;31.90;;;;;;;;;;5049819;28;20091;-66
2022/03/24 09:51:31;;;;;;;48.75;31.73;;;;;;;;;;5050265;28;20466;-65
2022/03/24 09:53:57;;;;;;;47.78;29.63;;;;;;;;;;5051161;28;20492;-65
2022/03/24 09:56:23;;;;;;;41.45;28.35;;;;;;;;;;5048484;28;20049;-66
2022/03/24 09:58:50;;;;;;;47.78;29.52;;;;;;;;;;5050580;28;20049;-65
2022/03/24 10:01:17;;;;;;;41.03;27.20;;;;;;;;;;5069903;28;20039;-65
2022/03/24 10:04:05;;;;;;;45.92;26.38;;;;;;;;;;5048689;28;20040;-65
2022/03/24 10:06:32;;;;;;;42.67;27.20;;;;;;;;;;5067757;28;20044;-65
2022/03/24 10:08:59;;;;;;;41.42;26.17;;;;;;;;;;5069791;28;20036;-65
2022/03/24 10:11:26;;;;;;;42.05;26.65;;;;;;;;;;5039109;28;20131;-65
2022/03/24 10:13:54;;;;;;;35.95;24.38;;;;;;;;;;5054640;28;20075;-65
2022/03/24 10:16:39;;;;;;;41.83;26.92;;;;;;;;;;5056948;28;20056;-65
2022/03/24 10:19:06;;;;;;;43.88;26.77;;;;;;;;;;5051982;28;20416;-65
2022/03/24 10:21:33;;;;;;;46.60;26.23;;;;;;;;;;5053990;28;20483;-65
2022/03/24 10:24:00;;;;;;;49.97;27.60;;;;;;;;;;5057185;28;20404;-68
2022/03/24 10:26:50;;;;;;;37.63;25.33;;;;;;;;;;5056849;28;20056;-66
2022/03/24 10:29:20;;;;;;;39.60;25.88;;;;;;;;;;5042116;28;20052;-65
2022/03/24 10:31:52;;;;;;;41.25;27.30;;;;;;;;;;5074107;28;20041;-65
2022/03/24 10:34:27;;;;;;;43.15;26.88;;;;;;;;;;5057996;28;20040;-65
2022/03/24 10:36:53;;;;;;;37.95;24.85;;;;;;;;;;5068738;28;20049;-65
2022/03/24 10:39:24;;;;;;;40.83;26.00;;;;;;;;;;5050984;28;20116;-65
2022/03/24 10:41:50;;;;;;;41.33;25.17;;;;;;;;;;5054642;28;20447;-65
2022/03/24 10:44:16;;;;;;;40.10;22.95;;;;;;;;;;5056596;28;20044;-65
2022/03/24 10:46:44;;;;;;;42.63;23.75;;;;;;;;;;5054401;28;20052;-65
2022/03/24 10:49:22;;;;;;;39.47;24.10;;;;;;;;;;5058952;28;20101;-65
2022/03/24 10:51:49;;;;;;;35.95;24.33;;;;;;;;;;5037095;28;20632;-65
2022/03/24 10:54:19;;;;;;;41.95;24.38;;;;;;;;;;5052586;28;20040;-65
2022/03/24 10:56:47;;;;;;;37.75;22.58;;;;;;;;;;5051692;28;20072;-65
2022/03/24 10:59:13;;;;;;;36.58;21.80;;;;;;;;;;5048393;28;20036;-65
2022/03/24 11:01:39;;;;;;;39.65;22.80;;;;;;;;;;5050532;28;20052;-65
2022/03/24 11:04:05;;;;;;;33.78;22.35;;;;;;;;;;5049674;28;20044;-65
2022/03/24 11:06:32;;;;;;;37.00;22.38;;;;;;;;;;5050696;28;20114;-65
2022/03/24 11:08:59;;;;;;;36.97;22.38;;;;;;;;;;5050612;28;20044;-65
2022/03/24 11:11:25;;;;;;;35.03;22.67;;;;;;;;;;5050661;28;20053;-65
2022/03/24 11:13:53;;;;;;;34.70;22.00;;;;;;;;;;5051400;28;20053;-65
2022/03/24 11:16:20;;;;;;;38.40;20.75;;;;;;;;;;5049767;28;20091;-65
2022/03/24 11:18:47;;;;;;;30.88;20.13;;;;;;;;;;5053425;28;20044;-65
2022/03/24 11:21:18;;;;;;;37.35;20.73;;;;;;;;;;5052371;28;20127;-65
2022/03/24 11:23:45;;;;;;;37.05;21.27;;;;;;;;;;5050737;28;20048;-65
2022/03/24 11:26:12;;;;;;;37.50;18.13;;;;;;;;;;5047141;28;20110;-65
2022/03/24 11:28:38;;;;;;;31.85;17.80;;;;;;;;;;5048011;28;20454;-65
2022/03/24 11:31:15;;;;;;;28.20;17.35;;;;;;;;;;5050440;28;20051;-65
2022/03/24 11:33:51;;;;;;;28.63;17.90;;;;;;;;;;5044496;28;20510;-65
2022/03/24 11:36:18;;;;;;;25.73;15.77;;;;;;;;;;5045382;28;20041;-65
2022/03/24 11:38:47;;;;;;;29.33;16.33;;;;;;;;;;5051785;28;20132;-65
2022/03/24 11:41:17;;;;;;;22.88;14.68;;;;;;;;;;5049749;28;20091;-65
2022/03/24 11:43:45;;;;;;;26.85;17.90;;;;;;;;;;5052019;28;20067;-65
2022/03/24 11:46:11;;;;;;;28.23;17.88;;;;;;;;;;5050246;28;20045;-65
2022/03/24 11:48:39;;;;;;;29.40;18.83;;;;;;;;;;5032560;28;20079;-65
2022/03/24 11:51:25;;;;;;;30.88;18.35;;;;;;;;;;5051185;28;20037;-65
2022/03/24 11:54:02;;;;;;;29.58;18.45;;;;;;;;;;5064032;28;20102;-65
2022/03/24 11:56:28;;;;;;;27.27;17.95;;;;;;;;;;5051577;28;20044;-65
2022/03/24 11:58:55;;;;;;;28.85;19.55;;;;;;;;;;5054352;28;20127;-65
2022/03/24 12:01:23;;;;;;;36.25;20.08;;;;;;;;;;5052214;28;20048;-65
2022/03/24 12:03:49;;;;;;;28.35;19.60;;;;;;;;;;5053160;28;20043;-65
2022/03/24 12:06:16;;;;;;;31.30;19.13;;;;;;;;;;5051444;28;20044;-65
2022/03/24 12:08:46;;;;;;;35.13;20.17;;;;;;;;;;5037411;28;20036;-65
2022/03/24 12:11:35;;;;;;;27.00;18.00;;;;;;;;;;5053022;28;20123;-65
2022/03/24 12:14:05;;;;;;;33.55;19.08;;;;;;;;;;5051674;28;20037;-65
2022/03/24 12:16:32;;;;;;;31.00;19.13;;;;;;;;;;5057111;28;20401;-66
2022/03/24 12:18:58;;;;;;;27.17;19.25;;;;;;;;;;5053002;28;20425;-65
2022/03/24 12:21:26;;;;;;;29.17;19.38;;;;;;;;;;5054054;28;20042;-65
2022/03/24 12:24:10;;;;;;;28.90;18.25;;;;;;;;;;5056265;28;20512;-65
2022/03/24 12:26:50;;;;;;;28.52;18.35;;;;;;;;;;5049660;28;20041;-65
2022/03/24 12:29:17;;;;;;;30.85;18.13;;;;;;;;;;5050507;28;20081;-65
2022/03/24 12:32:02;;;;;;;30.08;20.33;;;;;;;;;;5052615;28;20036;-65
2022/03/24 12:34:47;;;;;;;27.98;20.10;;;;;;;;;;5052232;28;20041;-65
2022/03/24 12:37:32;;;;;;;34.75;20.63;;;;;;;;;;5056804;28;20378;-67
2022/03/24 12:40:09;;;;;;;30.70;20.50;;;;;;;;;;5052659;28;20041;-67
2022/03/24 12:42:48;;;;;;;28.63;19.33;;;;;;;;;;5052658;28;20106;-65
2022/03/24 12:45:25;;;;;;;35.75;21.63;;;;;;;;;;5050307;28;20060;-66
2022/03/24 12:47:52;;;;;;;34.85;20.67;;;;;;;;;;5053025;28;20079;-65
2022/03/24 12:50:18;;;;;;;32.55;21.48;;;;;;;;;;5071002;28;20045;-65
2022/03/24 12:53:04;;;;;;;31.42;21.15;;;;;;;;;;5047567;28;20055;-66
2022/03/24 12:55:32;;;;;;;29.38;20.63;;;;;;;;;;5047210;28;20051;-65
2022/03/24 12:58:24;;;;;;;33.58;21.85;;;;;;;;;;5065226;28;20072;-65
2022/03/24 13:00:51;;;;;;;32.22;20.48;;;;;;;;;;5026859;28;20060;-65
2022/03/24 13:03:18;;;;;;;33.85;21.55;;;;;;;;;;5042109;28;20053;-65
2022/03/24 13:05:46;;;;;;;33.80;21.75;;;;;;;;;;5043658;28;20520;-65
2022/03/24 13:08:13;;;;;;;31.70;20.92;;;;;;;;;;5064008;28;20584;-65
2022/03/24 13:10:49;;;;;;;30.65;21.77;;;;;;;;;;5042486;28;20040;-65
2022/03/24 13:13:17;;;;;;;28.08;20.50;;;;;;;;;;5045437;28;20381;-65
2022/03/24 13:15:45;;;;;;;36.92;20.33;;;;;;;;;;5044781;28;20077;-65
2022/03/24 13:18:13;;;;;;;32.03;20.38;;;;;;;;;;5044684;28;20048;-65
2022/03/24 13:20:39;;;;;;;28.10;19.73;;;;;;;;;;5045655;28;20496;-65
2022/03/24 13:23:06;;;;;;;28.45;18.88;;;;;;;;;;5042727;28;20057;-65
2022/03/24 13:25:33;;;;;;;28.17;17.95;;;;;;;;;;5045887;28;20060;-65
2022/03/24 13:27:59;;;;;;;28.85;17.60;;;;;;;;;;5043342;28;20143;-65
2022/03/24 13:30:26;;;;;;;27.92;17.25;;;;;;;;;;5043020;28;20044;-65
2022/03/24 13:32:53;;;;;;;26.08;17.77;;;;;;;;;;5043850;28;20444;-65
2022/03/24 13:35:22;;;;;;;25.13;18.42;;;;;;;;;;5043276;28;20055;-65
2022/03/24 13:37:51;;;;;;;32.00;18.48;;;;;;;;;;5045052;28;20040;-65
2022/03/24 13:40:18;;;;;;;25.83;17.02;;;;;;;;;;5043564;28;20056;-65
2022/03/24 13:42:46;;;;;;;23.70;16.80;;;;;;;;;;5044486;28;20048;-65
2022/03/24 13:45:12;;;;;;;28.40;17.95;;;;;;;;;;5046414;28;20052;-65
2022/03/24 13:47:46;;;;;;;28.27;19.00;;;;;;;;;;5030380;28;20071;-65
2022/03/24 13:50:16;;;;;;;30.10;18.55;;;;;;;;;;5046824;28;20129;-65
2022/03/24 13:52:44;;;;;;;30.15;19.33;;;;;;;;;;5049501;28;20048;-65
2022/03/24 13:55:11;;;;;;;26.60;18.23;;;;;;;;;;5050111;28;20047;-65
2022/03/24 13:57:44;;;;;;;26.60;18.60;;;;;;;;;;5048666;28;20074;-65
2022/03/24 14:00:11;;;;;;;28.50;18.50;;;;;;;;;;5047885;28;20052;-65
2022/03/24 14:02:37;;;;;;;27.33;18.35;;;;;;;;;;5047214;28;20129;-65
2022/03/24 14:05:05;;;;;;;25.35;18.10;;;;;;;;;;5049457;28;20036;-65
2022/03/24 14:07:32;;;;;;;28.42;19.30;;;;;;;;;;5051024;28;20052;-65
2022/03/24 14:09:58;;;;;;;30.08;19.48;;;;;;;;;;5047293;28;20054;-65
2022/03/24 14:12:27;;;;;;;27.38;18.42;;;;;;;;;;5062444;28;20156;-65
2022/03/24 14:14:53;;;;;;;28.67;17.75;;;;;;;;;;5048604;28;20500;-65
2022/03/24 14:17:25;;;;;;;26.25;17.70;;;;;;;;;;5046822;28;20460;-65
2022/03/24 14:19:58;;;;;;;31.55;18.25;;;;;;;;;;5049975;28;20041;-65